Time;durP1;ratioP1;P1;durP2;ratioP2;P2;SDS_P1;SDS_P2;PMS_P1;PMS_P2;Temp;Humidity;BMP_temperature;BMP_pressure;BME280_temperature;BME280_humidity;BME280_pressure;Samples;Min_cycle;Max_cycle;Signal;HPM_P1;HPM_P2
2024/02/09 00:00:51;;;;;;;23.42;11.20;;;;;;;6.55;100.00;94768.16;5046064;28;20040;-74
2024/02/09 00:03:18;;;;;;;24.95;11.55;;;;;;;6.66;100.00;94766.25;5045965;28;20052;-74
2024/02/09 00:05:44;;;;;;;21.40;12.00;;;;;;;6.69;100.00;94759.25;5044880;28;20037;-74
2024/02/09 00:08:13;;;;;;;24.27;11.70;;;;;;;6.59;100.00;94755.38;5047833;28;20041;-75
2024/02/09 00:10:40;;;;;;;24.40;10.53;;;;;;;6.66;100.00;94751.84;5071886;28;20109;-73
2024/02/09 00:13:12;;;;;;;23.45;10.63;;;;;;;6.73;100.00;94737.47;5056492;28;20052;-73
2024/02/09 00:15:38;;;;;;;22.73;9.63;;;;;;;6.72;100.00;94731.28;5050546;28;20499;-73
2024/02/09 00:18:04;;;;;;;20.23;9.10;;;;;;;6.77;100.00;94730.09;5052559;28;20135;-76
2024/02/09 00:20:30;;;;;;;18.63;9.75;;;;;;;6.84;100.00;94720.00;5035883;28;20069;-76
2024/02/09 00:22:55;;;;;;;19.02;8.70;;;;;;;6.86;100.00;94714.13;5047724;28;20051;-74
2024/02/09 00:25:20;;;;;;;19.75;7.72;;;;;;;6.88;100.00;94712.59;5049860;28;20560;-74
2024/02/09 00:27:46;;;;;;;14.32;7.63;;;;;;;6.94;100.00;94710.25;5031095;28;20041;-74
2024/02/09 00:30:13;;;;;;;14.80;7.15;;;;;;;7.19;100.00;94693.84;5039638;28;20139;-73
2024/02/09 00:32:39;;;;;;;14.25;7.90;;;;;;;7.14;100.00;94702.41;5025106;28;20403;-73
2024/02/09 00:35:07;;;;;;;17.38;6.72;;;;;;;7.02;100.00;94700.91;5034315;28;20052;-73
2024/02/09 00:37:33;;;;;;;16.27;7.35;;;;;;;6.94;100.00;94695.88;5053824;28;20187;-73
2024/02/09 00:39:58;;;;;;;16.70;7.75;;;;;;;6.90;100.00;94695.88;5042858;28;20546;-73
2024/02/09 00:42:24;;;;;;;15.45;7.40;;;;;;;6.85;100.00;94699.00;5031433;28;20094;-75
2024/02/09 00:44:50;;;;;;;14.52;8.63;;;;;;;6.78;100.00;94699.78;5048797;28;20044;-75
2024/02/09 00:47:15;;;;;;;16.27;7.63;;;;;;;6.65;100.00;94695.91;5025076;28;20049;-75
2024/02/09 00:49:45;;;;;;;14.77;7.40;;;;;;;6.63;100.00;94700.97;5027284;28;20045;-75
2024/02/09 00:52:11;;;;;;;21.23;9.90;;;;;;;6.59;100.00;94687.38;5035025;28;20043;-74
2024/02/09 00:54:38;;;;;;;22.42;9.45;;;;;;;6.55;100.00;94689.28;5033159;28;20053;-75
2024/02/09 00:57:05;;;;;;;20.60;8.32;;;;;;;6.51;100.00;94683.09;5043667;28;20487;-72
2024/02/09 00:59:31;;;;;;;16.58;8.77;;;;;;;6.48;100.00;94686.56;5032510;28;20057;-73
2024/02/09 01:01:57;;;;;;;15.73;8.38;;;;;;;6.51;100.00;94686.56;5055898;28;20511;-73
2024/02/09 01:04:23;;;;;;;19.52;8.50;;;;;;;6.59;100.00;94681.13;5034807;28;20916;-76
2024/02/09 01:06:49;;;;;;;14.65;8.40;;;;;;;6.58;100.00;94683.09;5030518;28;20033;-74
2024/02/09 01:09:15;;;;;;;11.93;7.28;;;;;;;6.65;100.00;94672.19;5034414;28;20044;-75
2024/02/09 01:11:41;;;;;;;17.70;8.95;;;;;;;6.69;100.00;94669.47;5025945;28;20128;-75
2024/02/09 02:46:44;;;;;;;21.50;10.10;;;;;;;6.27;100.00;94641.16;5047127;28;20538;-74
2024/02/09 03:05:34;;;;;;;18.25;9.13;;;;;;;6.55;100.00;94645.78;5059212;28;20044;-73
2024/02/09 03:08:01;;;;;;;20.30;8.57;;;;;;;6.68;100.00;94643.41;5046690;28;20043;-73
2024/02/09 03:10:26;;;;;;;19.15;8.32;;;;;;;6.77;100.00;94649.25;5054223;28;20045;-73
2024/02/09 03:12:53;;;;;;;20.17;8.70;;;;;;;6.66;100.00;94646.56;5050566;28;20114;-73
2024/02/09 03:15:19;;;;;;;20.17;9.45;;;;;;;6.61;100.00;94638.00;5022147;28;20611;-75
2024/02/09 03:17:47;;;;;;;15.30;8.70;;;;;;;6.67;100.00;94648.09;5057844;28;20104;-75
2024/02/09 03:20:12;;;;;;;19.10;9.88;;;;;;;6.65;100.00;94655.09;5045473;28;20045;-75
2024/02/09 03:22:38;;;;;;;14.35;8.13;;;;;;;6.64;100.00;94654.31;5025835;28;20083;-75
2024/02/09 03:25:06;;;;;;;16.73;9.48;;;;;;;6.76;100.00;94661.28;5037543;28;20193;-72
2024/02/09 03:27:33;;;;;;;15.05;8.70;;;;;;;6.87;100.00;94662.03;5047782;28;20044;-74
2024/02/09 03:30:06;;;;;;;23.73;9.40;;;;;;;6.80;100.00;94659.34;5054166;28;20058;-75
2024/02/09 03:32:33;;;;;;;22.55;9.55;;;;;;;6.75;100.00;94656.25;5056272;28;20045;-73
2024/02/09 03:35:01;;;;;;;17.13;9.10;;;;;;;6.75;100.00;94657.00;5042489;28;20063;-73
2024/02/09 03:37:27;;;;;;;16.92;9.18;;;;;;;6.74;100.00;94662.88;5028014;28;20084;-74
2024/02/09 03:39:53;;;;;;;15.13;9.23;;;;;;;6.68;100.00;94665.19;5038387;28;20103;-76
2024/02/09 03:42:23;;;;;;;16.15;8.88;;;;;;;6.80;100.00;94653.13;5037622;28;20437;-74
2024/02/09 03:44:49;;;;;;;17.38;9.43;;;;;;;6.87;100.00;94648.44;5050310;28;20139;-73
2024/02/09 03:47:24;;;;;;;17.00;9.45;;;;;;;6.88;100.00;94655.44;5053410;22;20427;-72
2024/02/09 03:49:53;;;;;;;16.15;9.52;;;;;;;6.91;100.00;94659.31;5006372;28;20046;-73
2024/02/09 03:52:21;;;;;;;20.08;10.05;;;;;;;6.98;100.00;94661.25;5005987;28;20487;-72
2024/02/09 03:54:51;;;;;;;15.32;9.25;;;;;;;6.95;100.00;94662.81;5020302;28;20058;-72
2024/02/09 03:57:25;;;;;;;21.60;10.18;;;;;;;6.89;100.00;94658.94;5013827;28;20037;-73
2024/02/09 03:59:50;;;;;;;19.15;9.70;;;;;;;6.93;100.00;94658.94;5013512;28;20048;-72
2024/02/09 04:02:17;;;;;;;18.10;9.85;;;;;;;6.82;100.00;94667.13;5000937;28;20033;-72
2024/02/09 04:04:43;;;;;;;17.88;9.60;;;;;;;6.84;100.00;94672.94;5013797;28;20046;-73
2024/02/09 04:07:09;;;;;;;18.10;9.70;;;;;;;6.92;100.00;94676.44;5011396;28;20061;-73
2024/02/09 04:09:35;;;;;;;15.73;9.95;;;;;;;6.93;100.00;94675.25;5016786;28;20072;-73
2024/02/09 04:12:02;;;;;;;18.25;9.90;;;;;;;7.17;100.00;94681.81;5015997;28;20053;-75
2024/02/09 04:14:28;;;;;;;16.77;9.50;;;;;;;7.25;100.00;94673.22;5024264;28;20691;-73
2024/02/09 04:16:55;;;;;;;15.10;9.32;;;;;;;7.18;100.00;94681.41;5014655;28;20053;-75
2024/02/09 04:19:21;;;;;;;17.05;9.35;;;;;;;7.11;100.00;94673.25;5018226;28;20528;-74
2024/02/09 04:21:50;;;;;;;17.17;10.38;;;;;;;6.97;100.00;94673.28;5011418;28;20084;-73
2024/02/09 04:24:20;;;;;;;23.25;10.73;;;;;;;6.97;100.00;94670.56;5014518;28;20392;-73
2024/02/09 04:26:46;;;;;;;18.73;10.75;;;;;;;6.99;100.00;94666.31;5005348;28;20042;-74
2024/02/09 04:29:15;;;;;;;18.63;10.68;;;;;;;7.03;100.00;94663.56;5005465;28;20076;-77
2024/02/09 04:31:50;;;;;;;20.73;11.93;;;;;;;7.05;100.00;94661.22;5010708;28;20045;-73
2024/02/09 04:34:17;;;;;;;21.20;10.57;;;;;;;7.12;100.00;94663.94;4995410;28;20046;-75
2024/02/09 04:36:45;;;;;;;17.48;10.35;;;;;;;7.03;100.00;94658.91;4998153;28;20041;-74
2024/02/09 04:39:11;;;;;;;24.08;11.15;;;;;;;7.11;100.00;94656.16;5002899;28;20053;-73
2024/02/09 04:41:38;;;;;;;26.75;12.63;;;;;;;7.30;100.00;94661.16;5013506;28;20080;-75
2024/02/09 04:44:04;;;;;;;19.92;10.75;;;;;;;7.25;100.00;94650.66;4990712;28;20462;-73
2024/02/09 04:46:32;;;;;;;20.95;11.35;;;;;;;7.22;100.00;94648.72;5005759;28;20046;-73
2024/02/09 04:49:01;;;;;;;23.98;12.10;;;;;;;6.91;100.00;94634.81;4997020;28;20573;-74
2024/02/09 04:51:28;;;;;;;23.65;12.73;;;;;;;6.75;100.00;94637.19;5003404;28;20050;-72
2024/02/09 04:53:54;;;;;;;19.92;10.90;;;;;;;6.75;100.00;94640.69;5012408;28;20084;-73
2024/02/09 04:56:25;;;;;;;19.05;11.57;;;;;;;6.78;100.00;94641.88;5008549;28;20732;-74
2024/02/09 04:58:51;;;;;;;21.85;11.95;;;;;;;6.72;100.00;94641.50;5015842;28;20053;-73
2024/02/09 05:01:27;;;;;;;25.73;12.95;;;;;;;6.67;100.00;94633.72;5002517;28;20046;-73
2024/02/09 05:04:00;;;;;;;22.80;13.25;;;;;;;6.63;100.00;94641.13;5000494;28;20535;-73
2024/02/09 05:06:27;;;;;;;29.73;13.10;;;;;;;6.64;100.00;94640.72;5006513;28;20049;-74
2024/02/09 05:08:53;;;;;;;23.98;13.23;;;;;;;6.76;100.00;94623.22;5016762;28;20049;-75
2024/02/09 05:11:21;;;;;;;25.02;13.02;;;;;;;6.72;100.00;94633.31;5002979;28;20135;-77
2024/02/09 05:13:50;;;;;;;27.67;13.70;;;;;;;6.66;100.00;94637.59;5010115;28;20077;-76
2024/02/09 05:16:18;;;;;;;22.63;14.93;;;;;;;6.89;100.00;94629.00;5008703;28;20523;-75
2024/02/09 05:18:44;;;;;;;23.13;13.00;;;;;;;6.77;100.00;94622.06;5015905;28;20562;-73
2024/02/09 05:21:10;;;;;;;26.42;13.73;;;;;;;6.74;100.00;94625.53;5017915;28;20133;-73
2024/02/09 05:23:37;;;;;;;73.38;35.95;;;;;;;6.92;100.00;94630.94;4999651;28;20053;-74
2024/02/09 05:26:03;;;;;;;70.50;48.65;;;;;;;6.93;100.00;94623.53;5015550;28;20052;-76
2024/02/09 05:28:28;;;;;;;33.92;21.58;;;;;;;6.90;100.00;94619.69;5007920;28;20045;-74
2024/02/09 05:30:54;;;;;;;36.75;21.67;;;;;;;6.93;100.00;94624.31;5012896;28;20045;-73
2024/02/09 05:33:20;;;;;;;38.33;21.30;;;;;;;6.97;100.00;94622.38;4998383;28;20038;-74
2024/02/09 05:35:46;;;;;;;34.10;20.08;;;;;;;6.89;100.00;94613.44;5008458;28;20076;-75
2024/02/09 05:38:11;;;;;;;27.50;16.60;;;;;;;6.74;100.00;94609.22;5003510;28;20061;-74
2024/02/09 05:40:37;;;;;;;25.73;15.30;;;;;;;6.62;100.00;94606.91;5010171;28;20057;-74
2024/02/09 05:43:02;;;;;;;26.52;14.82;;;;;;;6.55;100.00;94602.25;5017481;28;20042;-76
2024/02/09 05:45:28;;;;;;;24.63;16.38;;;;;;;6.48;100.00;94603.06;5002876;28;20056;-74
2024/02/09 05:47:54;;;;;;;25.27;14.52;;;;;;;6.55;100.00;94599.53;5021987;28;20045;-74
2024/02/09 05:50:21;;;;;;;23.50;15.25;;;;;;;6.53;100.00;94603.81;5011535;28;20046;-73
2024/02/09 05:52:49;;;;;;;29.77;17.88;;;;;;;6.51;100.00;94606.94;5011732;28;20049;-75
2024/02/09 05:55:15;;;;;;;28.95;16.92;;;;;;;6.48;100.00;94597.63;5001427;28;20037;-74
2024/02/09 05:57:42;;;;;;;23.85;12.57;;;;;;;6.47;100.00;94595.28;5018720;28;20044;-73
2024/02/09 06:00:14;;;;;;;29.63;16.60;;;;;;;6.55;100.00;94601.50;5028662;28;20506;-74
2024/02/09 06:02:40;;;;;;;23.35;13.43;;;;;;;6.55;100.00;94596.06;5005329;28;20049;-75
2024/02/09 06:05:06;;;;;;;24.10;14.65;;;;;;;6.51;100.00;94602.25;5010500;28;20042;-75
2024/02/09 06:07:33;;;;;;;22.02;14.38;;;;;;;6.45;100.00;94601.13;5029123;28;20424;-74
2024/02/09 06:10:00;;;;;;;24.13;14.80;;;;;;;6.55;100.00;94593.31;4990779;28;20051;-75
2024/02/09 06:12:25;;;;;;;24.50;12.60;;;;;;;6.61;100.00;94587.09;5011380;28;20056;-75
2024/02/09 06:14:52;;;;;;;21.63;12.73;;;;;;;6.75;100.00;94585.50;5020020;28;20607;-73
2024/02/09 06:17:17;;;;;;;23.25;12.32;;;;;;;6.81;100.00;94592.88;5020040;28;20041;-74
2024/02/09 06:19:43;;;;;;;19.23;11.82;;;;;;;6.91;100.00;94591.28;4998263;28;20049;-74
2024/02/09 06:22:10;;;;;;;22.98;12.40;;;;;;;6.87;100.00;94598.69;5011860;28;20049;-75
2024/02/09 06:24:35;;;;;;;20.13;11.98;;;;;;;6.84;100.00;94597.53;4989647;28;20053;-75
2024/02/09 06:27:01;;;;;;;23.42;12.25;;;;;;;6.86;100.00;94606.09;5011947;28;20067;-77
2024/02/09 06:29:27;;;;;;;28.05;13.63;;;;;;;6.68;100.00;94605.34;4983151;28;20593;-75
2024/02/09 06:31:57;;;;;;;22.88;12.93;;;;;;;6.63;100.00;94605.75;5006774;28;20049;-75
2024/02/09 06:34:23;;;;;;;28.17;14.73;;;;;;;6.60;100.00;94604.59;4977000;28;20041;-74
2024/02/09 06:36:48;;;;;;;34.88;17.92;;;;;;;6.46;100.00;94607.31;5039112;28;20049;-74
2024/02/09 06:39:15;;;;;;;40.17;17.88;;;;;;;6.39;100.00;94605.41;4981100;28;20052;-74
2024/02/09 06:41:41;;;;;;;34.03;15.75;;;;;;;6.29;100.00;94600.75;5021896;28;20053;-74
2024/02/09 06:44:06;;;;;;;28.67;15.25;;;;;;;6.25;100.00;94608.91;5007930;28;20053;-74
2024/02/09 06:46:31;;;;;;;31.85;15.40;;;;;;;6.26;100.00;94598.81;5024995;28;20044;-74
2024/02/09 06:48:57;;;;;;;32.70;16.13;;;;;;;6.25;100.00;94595.31;5002905;28;20061;-74
2024/02/09 06:51:23;;;;;;;29.05;16.33;;;;;;;6.27;100.00;94600.38;5012801;28;20524;-74
2024/02/09 06:53:49;;;;;;;29.10;15.95;;;;;;;6.41;100.00;94594.91;4991868;28;20057;-75
2024/02/09 06:56:15;;;;;;;29.02;15.95;;;;;;;6.44;100.00;94587.91;5014040;28;20108;-74
2024/02/09 06:58:41;;;;;;;28.05;16.58;;;;;;;6.60;100.00;94598.38;5008991;28;20518;-75
2024/02/09 07:01:10;;;;;;;29.40;15.20;;;;;;;6.69;100.00;94585.91;5017028;28;20046;-74
2024/02/09 07:03:42;;;;;;;27.65;15.50;;;;;;;6.79;100.00;94605.31;5019494;28;20049;-74
2024/02/09 07:06:08;;;;;;;37.58;17.67;;;;;;;6.75;100.00;94602.59;5020073;28;20060;-74
2024/02/09 07:08:39;;;;;;;29.20;15.48;;;;;;;6.75;100.00;94601.81;5019275;28;20519;-75
2024/02/09 07:11:12;;;;;;;37.75;17.35;;;;;;;6.78;100.00;94598.34;5010621;28;20053;-75
2024/02/09 07:13:45;;;;;;;54.35;25.65;;;;;;;6.84;100.00;94602.19;5013458;28;20058;-75
2024/02/09 07:16:11;;;;;;;56.55;29.02;;;;;;;6.87;100.00;94596.72;5019197;28;20076;-73
2024/02/09 07:18:39;;;;;;;54.65;25.98;;;;;;;6.99;100.00;94600.22;5023759;28;20474;-74
2024/02/09 07:21:08;;;;;;;26.73;17.00;;;;;;;7.14;100.00;94609.09;5009117;28;20051;-72
2024/02/09 07:23:35;;;;;;;24.87;15.10;;;;;;;7.09;100.00;94602.09;5030158;28;20087;-74
2024/02/09 07:26:02;;;;;;;25.00;14.23;;;;;;;7.12;100.00;94593.16;5021724;28;20570;-74
2024/02/09 07:28:27;;;;;;;28.45;14.80;;;;;;;7.07;100.00;94604.44;5012323;28;20050;-73
2024/02/09 07:30:52;;;;;;;21.00;12.38;;;;;;;7.04;100.00;94597.84;5016383;28;20045;-74
2024/02/09 07:33:18;;;;;;;26.30;13.95;;;;;;;7.10;100.00;94590.06;5017390;28;20389;-73
2024/02/09 07:35:46;;;;;;;25.83;12.60;;;;;;;7.10;100.00;94592.78;5005437;28;20388;-73
2024/02/09 07:38:11;;;;;;;24.73;13.20;;;;;;;7.02;100.00;94593.97;5007711;28;20049;-72
2024/02/09 07:40:38;;;;;;;28.98;13.32;;;;;;;6.95;100.00;94594.00;5016255;28;20447;-73
2024/02/09 07:43:04;;;;;;;20.88;13.73;;;;;;;6.84;100.00;94586.66;5001814;28;20160;-75
2024/02/09 07:45:31;;;;;;;26.33;15.45;;;;;;;6.89;100.00;94588.94;5023274;28;20049;-73
2024/02/09 07:47:59;;;;;;;25.58;14.63;;;;;;;6.96;100.00;94598.28;5012629;28;20115;-73
2024/02/09 07:50:25;;;;;;;22.23;13.48;;;;;;;7.07;100.00;94601.72;5011076;28;20056;-72
2024/02/09 07:52:50;;;;;;;24.25;13.32;;;;;;;6.96;100.00;94582.72;4996186;28;20049;-74
2024/02/09 07:55:18;;;;;;;19.73;12.38;;;;;;;7.05;100.00;94577.63;5005141;28;20053;-74
2024/02/09 07:57:43;;;;;;;24.65;14.25;;;;;;;7.23;100.00;94582.97;5019065;28;20128;-74
2024/02/09 08:00:09;;;;;;;21.05;12.13;;;;;;;7.41;100.00;94577.44;5013914;28;20128;-73
2024/02/09 08:02:35;;;;;;;36.03;16.20;;;;;;;7.54;100.00;94585.16;5022163;28;20053;-74
2024/02/09 08:05:06;;;;;;;21.73;11.45;;;;;;;7.54;100.00;94582.44;5021647;28;20033;-77
2024/02/09 08:07:32;;;;;;;19.95;11.25;;;;;;;7.55;100.00;94589.44;5012305;28;20050;-74
2024/02/09 08:09:57;;;;;;;18.00;10.25;;;;;;;7.65;100.00;94594.03;5007037;28;20064;-75
2024/02/09 08:12:23;;;;;;;16.63;9.52;;;;;;;7.54;100.00;94585.16;5010783;28;20215;-74
2024/02/09 08:14:49;;;;;;;25.83;11.75;;;;;;;7.61;100.00;94594.06;5013300;28;20060;-72
2024/02/09 08:17:18;;;;;;;15.88;10.45;;;;;;;7.44;100.00;94573.94;5004476;28;20042;-75
2024/02/09 08:19:43;;;;;;;28.70;12.37;;;;;;;7.66;100.00;94587.44;5016527;28;20045;-75
2024/02/09 08:22:09;;;;;;;19.40;11.55;;;;;;;7.63;100.00;94566.41;5004714;28;20273;-75
2024/02/09 08:24:34;;;;;;;20.20;11.93;;;;;;;7.61;100.00;94577.72;5016168;28;20052;-75
2024/02/09 08:27:00;;;;;;;19.60;11.20;;;;;;;7.73;100.00;94575.72;5023361;28;20053;-75
2024/02/09 08:29:25;;;;;;;31.25;15.95;;;;;;;7.85;100.00;94573.28;4999327;28;20056;-75
2024/02/09 08:31:51;;;;;;;26.35;15.30;;;;;;;7.74;100.00;94553.53;5016231;28;20170;-75
2024/02/09 08:34:16;;;;;;;26.13;13.95;;;;;;;7.54;100.00;94566.84;5007061;28;20425;-75
2024/02/09 08:36:42;;;;;;;20.98;12.95;;;;;;;7.52;100.00;94566.47;5012339;28;20155;-74
2024/02/09 08:39:07;;;;;;;33.05;15.40;;;;;;;7.85;100.00;94559.66;4989612;28;20042;-74
2024/02/09 08:41:33;;;;;;;24.70;13.18;;;;;;;8.02;100.00;94554.47;5000738;28;20107;-75
2024/02/09 08:43:59;;;;;;;19.13;12.20;;;;;;;8.10;100.00;94557.91;5026208;28;20044;-74
2024/02/09 08:46:24;;;;;;;23.17;12.18;;;;;;;8.22;100.00;94560.13;5028617;28;20049;-74
2024/02/09 08:48:50;;;;;;;23.55;12.93;;;;;;;8.51;100.00;94560.66;5021556;28;20045;-73
2024/02/09 08:51:15;;;;;;;22.73;12.88;;;;;;;8.63;100.00;94548.47;5030348;28;20228;-73
2024/02/09 08:53:42;;;;;;;23.75;12.45;;;;;;;8.63;100.00;94553.91;5006450;28;20046;-76
2024/02/09 08:56:09;;;;;;;17.88;10.52;;;;;;;8.67;100.00;94546.47;5027593;28;20037;-74
2024/02/09 08:58:35;;;;;;;21.63;11.10;;;;;;;8.63;100.00;94548.47;5039728;28;20044;-74
2024/02/09 09:01:00;;;;;;;20.33;12.07;;;;;;;8.46;100.00;94558.38;5037708;28;20902;-75
2024/02/09 09:03:27;;;;;;;23.05;11.10;;;;;;;8.42;100.00;94558.41;5018359;28;20802;-74
2024/02/09 09:05:53;;;;;;;16.58;9.48;;;;;;;8.51;100.00;94559.88;5029092;28;20134;-74
2024/02/09 09:08:19;;;;;;;16.95;10.07;;;;;;;8.79;100.00;94553.38;5005552;28;20048;-72
2024/02/09 09:10:44;;;;;;;13.60;8.88;;;;;;;8.86;100.00;94544.28;5007284;28;20551;-73
2024/02/09 09:13:13;;;;;;;13.85;8.45;;;;;;;8.79;100.00;94558.81;5031586;28;20099;-74
2024/02/09 09:15:38;;;;;;;13.25;8.13;;;;;;;9.06;100.00;94549.94;4995398;28;20376;-72
2024/02/09 09:18:06;;;;;;;13.75;7.93;;;;;;;9.17;100.00;94550.56;5015275;28;20075;-76
2024/02/09 09:20:32;;;;;;;24.70;10.32;;;;;;;9.23;100.00;94539.97;5028825;28;20683;-73
2024/02/09 09:22:58;;;;;;;20.50;8.68;;;;;;;9.31;100.00;94539.44;5005845;28;20343;-74
2024/02/09 09:25:23;;;;;;;13.63;8.15;;;;;;;9.46;100.00;94540.03;5019746;28;20056;-73
2024/02/09 09:27:49;;;;;;;15.85;8.30;;;;;;;9.65;100.00;94544.06;5011667;28;20037;-74
2024/02/09 09:30:17;;;;;;;16.67;8.45;;;;;;;9.71;100.00;94547.88;5007838;28;20048;-73
2024/02/09 09:32:42;;;;;;;16.70;8.80;;;;;;;9.79;100.00;94539.56;5029043;28;20056;-74
2024/02/09 09:35:08;;;;;;;15.25;8.52;;;;;;;9.95;100.00;94537.72;5021569;28;20044;-74
2024/02/09 09:37:36;;;;;;;14.25;7.55;;;;;;;10.32;100.00;94535.22;5009843;28;20056;-75
2024/02/09 09:40:02;;;;;;;11.80;7.63;;;;;;;10.41;100.00;94532.69;4999907;28;20041;-77
2024/02/09 09:42:28;;;;;;;13.10;7.43;;;;;;;10.86;100.00;94515.81;5010843;28;20041;-72
2024/02/09 09:44:54;;;;;;;13.00;7.10;;;;;;;11.14;100.00;94529.34;4992380;28;20057;-72
2024/02/09 09:47:22;;;;;;;13.88;8.10;;;;;;;11.71;100.00;94514.41;5016357;28;20046;-74
2024/02/09 09:49:49;;;;;;;20.13;9.65;;;;;;;12.15;100.00;94511.44;5029081;28;20572;-75
2024/02/09 09:52:28;;;;;;;16.98;10.63;;;;;;;12.10;100.00;94512.72;5007466;28;20037;-74
2024/02/09 09:54:58;;;;;;;14.88;9.93;;;;;;;11.95;100.00;94517.00;5019076;28;20046;-73
2024/02/09 09:57:23;;;;;;;17.50;10.57;;;;;;;11.72;100.00;94502.25;5020035;28;20212;-72
2024/02/09 09:59:50;;;;;;;14.27;9.60;;;;;;;11.86;100.00;94503.88;5003999;28;20045;-72
2024/02/09 10:02:15;;;;;;;16.05;9.60;;;;;;;11.33;100.00;94508.63;5013878;28;20076;-73
2024/02/09 10:04:41;;;;;;;15.43;9.20;;;;;;;11.36;100.00;94494.03;5017249;28;20056;-74
2024/02/09 10:07:08;;;;;;;18.42;9.90;;;;;;;11.14;100.00;94493.75;4995796;28;20045;-75
2024/02/09 10:09:33;;;;;;;15.32;10.32;;;;;;;10.37;100.00;94480.00;5000959;28;20037;-74
2024/02/09 10:11:59;;;;;;;22.67;14.73;;;;;;;9.59;100.00;94479.34;5018341;28;20345;-73
2024/02/09 10:14:26;;;;;;;29.77;18.30;;;;;;;9.28;100.00;94471.97;4996081;28;20089;-74
2024/02/09 10:16:52;;;;;;;21.08;13.55;;;;;;;9.48;100.00;94457.66;5000545;28;20052;-72
2024/02/09 10:19:17;;;;;;;23.13;12.82;;;;;;;9.68;100.00;94465.91;5001192;28;20050;-72
2024/02/09 10:21:43;;;;;;;24.75;13.10;;;;;;;9.53;100.00;94460.69;5001608;28;20080;-73
2024/02/09 10:24:10;;;;;;;21.30;13.38;;;;;;;9.56;100.00;94456.31;4995900;28;20675;-73
2024/02/09 10:26:38;;;;;;;19.08;12.07;;;;;;;9.82;100.00;94452.00;5002164;28;20156;-72
2024/02/09 10:29:04;;;;;;;20.27;11.50;;;;;;;10.04;100.00;94470.78;5020865;28;20814;-73
2024/02/09 10:31:31;;;;;;;17.23;11.45;;;;;;;10.23;100.00;94455.63;5020101;28;20046;-72
2024/02/09 10:33:57;;;;;;;19.00;10.80;;;;;;;10.07;100.00;94456.28;5029196;28;20057;-71
2024/02/09 10:36:27;;;;;;;19.70;11.15;;;;;;;9.83;100.00;94474.66;5019013;28;20556;-74
2024/02/09 10:38:55;;;;;;;20.95;12.30;;;;;;;9.94;100.00;94465.09;5021085;28;20052;-72
2024/02/09 10:41:24;;;;;;;20.25;12.68;;;;;;;9.80;100.00;94459.09;5022878;28;20072;-72
2024/02/09 10:43:54;;;;;;;18.75;11.68;;;;;;;9.44;100.00;94457.69;5006390;28;20050;-73
2024/02/09 10:46:23;;;;;;;18.02;10.95;;;;;;;9.32;100.00;94471.94;5009249;28;20136;-74
2024/02/09 10:48:54;;;;;;;17.33;10.70;;;;;;;9.63;100.00;94466.38;4994240;28;20504;-73
2024/02/09 10:51:27;;;;;;;16.08;10.93;;;;;;;9.92;100.00;94463.94;5029522;28;20070;-73
2024/02/09 10:54:10;;;;;;;23.88;13.57;;;;;;;10.19;100.00;94461.16;5046538;28;20116;-72
2024/02/09 10:56:37;;;;;;;22.60;12.95;;;;;;;10.42;100.00;94451.38;5026712;28;20144;-71
2024/02/09 10:59:05;;;;;;;18.00;11.25;;;;;;;10.45;100.00;94451.31;5027560;23;20056;-75
2024/02/09 11:01:33;;;;;;;15.85;9.13;;;;;;;10.70;100.00;94439.84;5030653;28;20076;-74
2024/02/09 11:03:59;;;;;;;16.25;9.77;;;;;;;10.95;100.00;94435.03;5045597;28;20049;-74
2024/02/09 11:06:25;;;;;;;15.80;9.27;;;;;;;10.43;100.00;94431.03;5027695;28;20046;-73
2024/02/09 11:08:52;;;;;;;15.07;8.73;;;;;;;10.24;100.00;94424.31;5047475;28;20372;-73
2024/02/09 11:11:17;;;;;;;15.95;9.70;;;;;;;10.23;100.00;94423.56;5052352;28;20095;-73
2024/02/09 11:13:43;;;;;;;11.75;6.32;;;;;;;10.65;100.00;94428.63;5054747;28;20431;-75
2024/02/09 11:16:08;;;;;;;11.40;7.40;;;;;;;11.12;100.00;94430.38;5055841;28;20387;-73
2024/02/09 11:18:35;;;;;;;12.48;6.63;;;;;;;11.36;100.00;94431.00;5064845;28;20040;-75
2024/02/09 11:21:04;;;;;;;17.42;7.10;;;;;;;11.52;100.00;94416.53;5054539;28;20037;-76
2024/02/09 11:23:40;;;;;;;10.10;6.22;;;;;;;11.69;100.00;94406.38;5047806;28;20040;-76
2024/02/09 11:26:10;;;;;;;11.05;6.93;;;;;;;11.71;100.00;94407.47;5034189;28;20041;-75
2024/02/09 11:28:35;;;;;;;10.88;6.53;;;;;;;11.72;100.00;94408.22;5058496;28;20106;-74
2024/02/09 11:31:01;;;;;;;9.35;6.03;;;;;;;11.81;100.00;94403.69;5059716;28;20049;-78
2024/02/09 11:33:28;;;;;;;9.57;6.07;;;;;;;11.83;100.00;94415.00;5060939;28;20391;-76
2024/02/09 11:35:53;;;;;;;11.80;6.28;;;;;;;11.92;100.00;94405.41;5053007;28;20041;-76
2024/02/09 11:38:20;;;;;;;10.43;5.80;;;;;;;12.01;100.00;94406.34;5041643;28;20090;-75
2024/02/09 11:40:51;;;;;;;15.13;6.32;;;;;;;11.99;100.00;94403.25;5053176;28;20048;-75
2024/02/09 11:43:16;;;;;;;14.07;6.97;;;;;;;12.02;100.00;94396.88;5038844;28;20041;-76
2024/02/09 11:45:43;;;;;;;9.27;6.05;;;;;;;12.12;100.00;94399.78;5054150;28;20053;-76
2024/02/09 11:48:08;;;;;;;11.88;6.78;;;;;;;12.16;100.00;94403.97;5054544;28;20601;-76
2024/02/09 11:50:36;;;;;;;10.00;6.40;;;;;;;12.15;100.00;94396.19;5053632;28;20103;-77
2024/02/09 11:53:06;;;;;;;12.68;6.40;;;;;;;12.15;100.00;94405.19;5052051;28;20099;-75
2024/02/09 11:55:32;;;;;;;12.50;6.72;;;;;;;12.14;100.00;94409.13;5058133;28;20535;-76
2024/02/09 11:57:57;;;;;;;12.38;6.38;;;;;;;12.10;100.00;94396.72;5040721;28;20056;-76
2024/02/09 12:00:25;;;;;;;10.98;7.07;;;;;;;12.12;100.00;94386.06;5051876;28;20045;-75
2024/02/09 12:02:51;;;;;;;15.90;7.32;;;;;;;12.06;100.00;94394.06;5057335;28;20059;-75
2024/02/09 12:05:17;;;;;;;12.27;6.40;;;;;;;12.02;100.00;94393.38;5043622;28;20033;-73
2024/02/09 12:07:43;;;;;;;8.75;5.88;;;;;;;12.04;100.00;94402.72;5067854;28;20041;-74
2024/02/09 12:10:09;;;;;;;9.40;5.60;;;;;;;11.86;100.00;94400.41;5041649;28;20135;-73
2024/02/09 12:12:35;;;;;;;9.00;5.88;;;;;;;11.55;100.00;94391.03;5046834;28;20045;-73
2024/02/09 12:15:05;;;;;;;12.48;6.47;;;;;;;11.72;100.00;94387.09;5047421;28;20053;-74
2024/02/09 12:17:31;;;;;;;12.68;5.85;;;;;;;11.91;100.00;94384.69;5044628;28;20048;-76
2024/02/09 12:19:59;;;;;;;12.20;5.78;;;;;;;12.13;100.00;94374.66;5050562;28;20049;-74
2024/02/09 12:22:25;;;;;;;16.50;5.57;;;;;;;12.24;100.00;94375.16;5042395;28;20064;-74
2024/02/09 12:24:51;;;;;;;12.90;5.90;;;;;;;12.25;100.00;94367.69;5035243;28;20049;-74
2024/02/09 12:27:18;;;;;;;11.30;6.53;;;;;;;12.28;100.00;94363.28;5049743;28;20075;-74
2024/02/09 12:29:44;;;;;;;19.83;6.50;;;;;;;12.26;100.00;94366.47;5048347;28;20056;-74
2024/02/09 12:32:10;;;;;;;19.48;11.38;;;;;;;11.84;100.00;94364.41;5043407;28;20041;-74
2024/02/09 12:34:46;;;;;;;20.02;8.88;;;;;;;11.67;100.00;94368.41;5048597;28;20049;-75
2024/02/09 12:37:15;;;;;;;22.67;8.50;;;;;;;11.62;100.00;94369.69;5046226;28;20040;-75
2024/02/09 12:39:53;;;;;;;13.63;6.38;;;;;;;11.51;100.00;94355.47;5051479;28;20083;-74
2024/02/09 12:42:32;;;;;;;38.67;6.88;;;;;;;11.36;100.00;94346.06;5034280;28;20053;-73
2024/02/09 12:44:59;;;;;;;21.15;5.90;;;;;;;11.50;100.00;94355.91;5058071;28;20040;-75
2024/02/09 12:47:26;;;;;;;14.93;6.53;;;;;;;11.55;100.00;94338.94;5038284;28;20068;-74
2024/02/09 12:49:52;;;;;;;17.33;7.32;;;;;;;11.44;100.00;94339.22;5051026;28;20048;-74
2024/02/09 12:52:19;;;;;;;19.27;7.32;;;;;;;10.75;100.00;94337.31;5029003;28;20072;-73
2024/02/09 12:54:46;;;;;;;23.52;9.65;;;;;;;10.90;100.00;94337.75;5022577;28;20045;-77
2024/02/09 12:57:12;;;;;;;20.60;9.10;;;;;;;10.81;100.00;94343.81;5048892;28;20119;-74
2024/02/09 12:59:39;;;;;;;22.38;8.77;;;;;;;10.78;100.00;94346.63;5047942;28;20052;-74
2024/02/09 13:02:07;;;;;;;20.67;8.18;;;;;;;10.75;100.00;94345.50;5045897;28;20498;-74
2024/02/09 13:04:33;;;;;;;18.17;7.80;;;;;;;10.81;100.00;94343.81;5049066;28;20055;-75
2024/02/09 13:06:59;;;;;;;24.65;9.48;;;;;;;10.90;100.00;94333.03;5049000;28;20044;-73